createdAt,value
2019-03-24T00:02:17.793Z,83.73
2019-03-24T00:04:54.920Z,82.87
2019-03-24T00:07:27.991Z,93.60
2019-03-24T00:09:59.307Z,86.97
2019-03-24T00:12:30.688Z,81.37
2019-03-24T00:15:02.385Z,86.83
2019-03-24T00:17:33.845Z,85.40
2019-03-24T00:20:10.570Z,83.00
2019-03-24T00:22:43.529Z,83.90
2019-03-24T00:25:17.684Z,91.60
2019-03-24T00:27:49.117Z,85.40
2019-03-24T00:30:20.401Z,88.93
2019-03-24T00:32:51.779Z,89.80
2019-03-24T00:35:23.111Z,88.47
2019-03-24T00:37:54.950Z,90.47
2019-03-24T00:40:26.255Z,86.23
2019-03-24T00:42:57.655Z,89.43
2019-03-24T00:45:36.764Z,86.07
2019-03-24T00:48:04.272Z,94.73
2019-03-24T00:50:38.528Z,96.97
2019-03-24T00:53:10.412Z,87.77
2019-03-24T00:55:43.392Z,93.03
2019-03-24T00:58:15.035Z,93.90
2019-03-24T01:00:50.633Z,95.53
2019-03-24T01:03:23.155Z,93.93
2019-03-24T01:05:54.571Z,99.67
2019-03-24T01:08:26.380Z,94.33
2019-03-24T01:10:59.386Z,95.07
2019-03-24T01:13:30.694Z,98.97
2019-03-24T01:16:02.464Z,93.83
2019-03-24T01:18:33.855Z,111.00
2019-03-24T01:21:09.969Z,104.40
2019-03-24T01:23:41.300Z,112.33
2019-03-24T01:26:13.110Z,104.43
2019-03-24T01:28:48.007Z,107.47
2019-03-24T01:31:19.710Z,96.47
2019-03-24T01:33:51.092Z,95.63
2019-03-24T01:36:25.265Z,108.60
2019-03-24T01:38:58.735Z,101.90
2019-03-24T01:41:30.619Z,96.63
2019-03-24T01:44:01.960Z,101.23
2019-03-24T01:46:33.539Z,91.00
2019-03-24T01:49:04.877Z,102.73
2019-03-24T01:51:37.426Z,95.83
2019-03-24T01:54:08.821Z,94.07
2019-03-24T01:56:40.121Z,89.37
2019-03-24T01:59:11.516Z,99.27
2019-03-24T02:02:41.541Z,90.10
2019-03-24T02:05:39.577Z,98.10
2019-03-24T02:08:14.644Z,101.60
2019-03-24T02:10:46.307Z,96.63
2019-03-24T02:13:17.662Z,102.83
2019-03-24T02:15:53.008Z,104.60
2019-03-24T02:18:25.257Z,109.33
2019-03-24T02:20:56.688Z,99.50
2019-03-24T02:23:33.951Z,101.70
2019-03-24T02:26:05.317Z,102.40
2019-03-24T02:28:37.081Z,102.70
2019-03-24T02:31:08.423Z,103.60
2019-03-24T02:33:41.392Z,96.30
2019-03-24T02:36:12.813Z,109.50
2019-03-24T02:38:44.205Z,90.10
2019-03-24T02:41:17.297Z,90.80
2019-03-24T02:43:48.776Z,104.83
2019-03-24T02:46:25.151Z,102.87
2019-03-24T02:48:56.876Z,97.33
2019-03-24T02:51:28.190Z,100.40
2019-03-24T02:53:59.644Z,92.43
2019-03-24T02:56:34.377Z,102.80
2019-03-24T02:59:06.467Z,97.90
2019-03-24T03:01:38.374Z,93.93
2019-03-24T03:04:09.767Z,90.00
2019-03-24T03:06:41.301Z,86.47
2019-03-24T03:09:12.668Z,90.87
2019-03-24T03:11:44.518Z,93.97
2019-03-24T03:14:16.185Z,92.60
2019-03-24T03:16:47.655Z,89.90
2019-03-24T03:19:19.446Z,97.63
2019-03-24T03:21:50.834Z,90.37
2019-03-24T03:24:22.533Z,85.90
2019-03-24T03:26:54.206Z,99.13
2019-03-24T03:29:25.593Z,93.93
2019-03-24T03:31:57.061Z,91.43
2019-03-24T03:34:28.816Z,100.00
2019-03-24T03:37:00.260Z,95.00
2019-03-24T03:39:31.681Z,86.40
2019-03-24T03:42:06.439Z,95.93
2019-03-24T03:44:38.411Z,96.73
2019-03-24T03:47:09.758Z,97.43
2019-03-24T03:49:41.743Z,95.70
2019-03-24T03:52:13.169Z,105.90
2019-03-24T03:54:44.497Z,92.03
2019-03-24T03:57:16.207Z,106.27
2019-03-24T03:59:47.518Z,101.97
2019-03-24T04:02:19.218Z,98.07
2019-03-24T04:04:51.342Z,100.90
2019-03-24T04:07:23.042Z,102.63
2019-03-24T04:09:57.270Z,108.83
2019-03-24T04:12:28.786Z,107.83
2019-03-24T04:15:00.545Z,105.23
2019-03-24T04:17:32.078Z,111.43
2019-03-24T04:20:03.678Z,99.07
2019-03-24T04:22:36.244Z,109.87
2019-03-24T04:25:08.294Z,109.83
2019-03-24T04:27:40.718Z,102.67
2019-03-24T04:30:12.113Z,107.33
2019-03-24T04:32:44.145Z,107.03
2019-03-24T04:35:15.509Z,104.53
2019-03-24T04:37:47.221Z,104.87
2019-03-24T04:40:19.062Z,110.20
2019-03-24T04:42:50.454Z,109.63
2019-03-24T04:45:21.833Z,104.13
2019-03-24T04:47:53.209Z,103.47
2019-03-24T04:50:24.578Z,107.50
2019-03-24T04:52:55.886Z,108.47
2019-03-24T04:55:27.254Z,104.27
2019-03-24T04:58:02.807Z,105.87
2019-03-24T05:00:40.094Z,109.93
2019-03-24T05:03:11.416Z,105.27
2019-03-24T05:05:42.783Z,100.77
2019-03-24T05:08:14.202Z,107.17
2019-03-24T05:10:46.683Z,103.87
2019-03-24T05:13:18.211Z,103.17
2019-03-24T05:15:49.600Z,106.20
2019-03-24T05:18:21.241Z,106.20
2019-03-24T05:20:52.673Z,106.30
2019-03-24T05:23:24.487Z,112.00
2019-03-24T05:25:55.985Z,101.43
2019-03-24T05:28:27.390Z,105.77
2019-03-24T05:30:58.782Z,104.80
2019-03-24T05:33:30.188Z,101.73
2019-03-24T05:36:01.583Z,100.13
2019-03-24T05:38:32.988Z,102.50
2019-03-24T05:41:04.582Z,105.30
2019-03-24T05:43:36.000Z,99.00
2019-03-24T05:46:07.871Z,102.33
2019-03-24T05:48:42.239Z,106.80
2019-03-24T05:51:13.635Z,105.90
2019-03-24T05:53:45.053Z,102.93
2019-03-24T05:56:16.935Z,104.77
2019-03-24T05:58:48.333Z,105.23
2019-03-24T06:01:19.699Z,103.17
2019-03-24T06:03:51.462Z,119.37
2019-03-24T06:06:23.193Z,114.47
2019-03-24T06:08:54.562Z,109.30
2019-03-24T06:11:31.466Z,106.43
2019-03-24T06:14:02.924Z,111.90
2019-03-24T06:16:34.445Z,106.57
2019-03-24T06:19:07.040Z,107.70
2019-03-24T06:21:38.405Z,115.40
2019-03-24T06:24:14.743Z,115.50
2019-03-24T06:26:46.275Z,116.80
2019-03-24T06:29:17.883Z,111.33
2019-03-24T06:31:55.316Z,106.33
2019-03-24T06:34:28.366Z,106.73
2019-03-24T06:37:00.261Z,109.77
2019-03-24T06:39:31.646Z,108.63
2019-03-24T06:42:03.204Z,106.70
2019-03-24T06:44:34.556Z,103.80
2019-03-24T06:47:05.960Z,108.20
2019-03-24T06:49:37.515Z,103.57
2019-03-24T06:52:09.515Z,105.73
2019-03-24T06:54:40.908Z,100.17
2019-03-24T06:57:12.236Z,110.23
2019-03-24T06:59:44.027Z,96.20
2019-03-24T07:02:15.827Z,98.57
2019-03-24T07:04:47.471Z,97.20
2019-03-24T07:07:19.641Z,98.80
2019-03-24T07:09:51.111Z,88.97
2019-03-24T07:12:22.635Z,100.30
2019-03-24T07:14:54.178Z,91.60
2019-03-24T07:17:25.960Z,95.70
2019-03-24T07:19:57.650Z,94.30
2019-03-24T07:22:28.988Z,97.00
2019-03-24T07:25:00.388Z,88.87
2019-03-24T07:27:32.350Z,86.13
2019-03-24T07:30:03.831Z,83.83
2019-03-24T07:32:35.463Z,84.83
2019-03-24T07:35:07.825Z,76.87
2019-03-24T07:37:39.241Z,83.73
2019-03-24T07:40:11.746Z,84.17
2019-03-24T07:42:43.160Z,82.70
2019-03-24T07:45:16.053Z,87.13
2019-03-24T07:47:49.050Z,84.60
2019-03-24T07:50:21.067Z,87.13
2019-03-24T07:52:52.492Z,78.70
2019-03-24T07:55:23.846Z,84.67
2019-03-24T07:58:00.486Z,84.40
2019-03-24T08:00:40.753Z,76.83
2019-03-24T08:03:12.216Z,74.30
2019-03-24T08:05:46.956Z,70.67
2019-03-24T08:08:18.240Z,70.57
2019-03-24T08:10:54.539Z,69.50
2019-03-24T08:13:25.854Z,84.33
2019-03-24T08:15:58.506Z,72.50
2019-03-24T08:18:32.309Z,72.53
2019-03-24T08:21:05.290Z,73.40
2019-03-24T08:23:46.708Z,74.73
2019-03-24T08:26:22.487Z,73.70
2019-03-24T08:28:56.530Z,70.77
2019-03-24T08:31:34.109Z,74.17
2019-03-24T08:34:10.319Z,78.50
2019-03-24T08:36:41.710Z,77.43
2019-03-24T08:39:13.179Z,112.00
2019-03-24T08:41:47.415Z,100.87
2019-03-24T08:44:18.872Z,71.90
2019-03-24T08:46:52.895Z,76.93
2019-03-24T08:49:24.722Z,70.67
2019-03-24T08:51:57.730Z,78.80
2019-03-24T08:54:31.492Z,75.13
2019-03-24T08:57:05.090Z,70.93
2019-03-24T08:59:36.841Z,70.00
2019-03-24T09:02:08.247Z,73.93
2019-03-24T09:04:42.670Z,73.33
2019-03-24T09:07:14.506Z,65.83
2019-03-24T09:09:46.245Z,72.77
2019-03-24T09:12:19.489Z,70.77
2019-03-24T09:14:51.837Z,63.77
2019-03-24T09:17:43.137Z,67.97
2019-03-24T09:20:23.501Z,72.77
2019-03-24T09:35:53.725Z,68.33
2019-03-24T09:38:25.046Z,68.37
2019-03-24T09:40:56.566Z,65.70
2019-03-24T09:43:28.666Z,58.93
2019-03-24T09:46:01.739Z,86.03
2019-03-24T09:48:40.758Z,76.43
2019-03-24T09:51:29.314Z,67.30
2019-03-24T09:54:07.014Z,64.17
2019-03-24T09:56:44.426Z,65.23
2019-03-24T09:59:16.068Z,67.20
2019-03-24T10:01:54.650Z,63.37
2019-03-24T10:04:27.314Z,69.57
2019-03-24T10:07:01.797Z,63.90
2019-03-24T10:09:33.848Z,63.17
2019-03-24T10:19:13.865Z,84.10
2019-03-24T10:21:42.483Z,86.07
2019-03-24T10:24:17.049Z,87.73
2019-03-24T10:26:48.359Z,93.70
2019-03-24T10:29:21.196Z,98.17
2019-03-24T10:31:52.692Z,99.23
2019-03-24T10:34:25.898Z,90.10
2019-03-24T10:36:57.461Z,89.47
2019-03-24T10:39:29.186Z,91.57
2019-03-24T10:42:00.531Z,95.60
2019-03-24T10:44:37.199Z,102.03
2019-03-24T10:47:10.796Z,79.73
2019-03-24T10:49:42.220Z,81.90
2019-03-24T10:52:17.282Z,91.43
2019-03-24T10:54:48.961Z,84.30
2019-03-24T10:57:23.933Z,80.60
2019-03-24T11:00:01.308Z,84.00
2019-03-24T11:02:34.286Z,88.17
2019-03-24T11:05:11.488Z,90.23
2019-03-24T11:07:43.088Z,88.43
2019-03-24T11:10:14.820Z,79.87
2019-03-24T11:12:46.450Z,79.87
2019-03-24T11:15:24.214Z,81.17
2019-03-24T11:17:58.729Z,78.77
2019-03-24T11:20:31.010Z,79.30
2019-03-24T11:23:11.281Z,74.23
2019-03-24T11:25:50.440Z,79.57
2019-03-24T11:28:24.001Z,74.87
2019-03-24T11:30:55.382Z,113.47
2019-03-24T11:33:34.283Z,104.67
2019-03-24T11:36:06.263Z,83.87
2019-03-24T11:38:37.988Z,74.60
2019-03-24T11:41:17.152Z,84.30
2019-03-24T11:43:51.815Z,78.73
2019-03-24T11:46:26.454Z,83.87
2019-03-24T11:49:02.312Z,73.90
2019-03-24T11:51:39.331Z,77.63
2019-03-24T11:54:11.833Z,78.43
2019-03-24T11:56:45.947Z,79.87
2019-03-24T11:59:17.964Z,82.47
2019-03-24T12:01:50.637Z,68.33
2019-03-24T12:04:37.619Z,81.20
2019-03-24T12:07:38.301Z,77.63
2019-03-24T12:10:16.865Z,76.63
2019-03-24T12:12:50.996Z,76.17
2019-03-24T12:15:26.333Z,73.30
2019-03-24T12:17:58.437Z,72.93
2019-03-24T12:20:32.298Z,73.67
2019-03-24T12:23:07.045Z,76.60
2019-03-24T12:25:38.438Z,70.63
2019-03-24T12:28:11.448Z,72.67
2019-03-24T12:30:43.831Z,74.47
2019-03-24T12:33:24.261Z,72.97
2019-03-24T12:35:57.895Z,74.17
2019-03-24T12:38:29.224Z,78.60
2019-03-24T12:41:07.866Z,74.63
2019-03-24T12:43:42.260Z,74.80
2019-03-24T12:46:15.541Z,157.00
2019-03-24T12:48:47.522Z,102.53
2019-03-24T12:51:20.308Z,78.30
2019-03-24T12:53:59.445Z,75.90
2019-03-24T12:56:35.581Z,71.30
2019-03-24T12:59:17.957Z,88.83
2019-03-24T13:02:07.584Z,77.03
2019-03-24T13:04:49.351Z,87.73
2019-03-24T13:07:50.354Z,88.00
2019-03-24T13:10:26.812Z,73.63
2019-03-24T13:13:04.092Z,67.23
2019-03-24T13:15:38.559Z,69.00
2019-03-24T13:18:15.162Z,68.07
2019-03-24T13:20:48.060Z,68.17
2019-03-24T13:23:22.409Z,64.60
2019-03-24T13:25:55.502Z,66.77
2019-03-24T13:28:36.476Z,63.60
2019-03-24T13:31:07.905Z,70.77
2019-03-24T13:33:40.372Z,66.83
2019-03-24T13:36:21.831Z,64.50
2019-03-24T13:38:58.047Z,73.67
2019-03-24T13:41:45.571Z,59.60
2019-03-24T13:44:22.686Z,62.23
2019-03-24T13:47:09.825Z,63.10
2019-03-24T13:49:41.748Z,61.57
2019-03-24T13:52:13.380Z,51.93
2019-03-24T13:54:53.552Z,61.50
2019-03-24T13:57:25.363Z,61.07
2019-03-24T13:59:58.547Z,63.57
2019-03-24T14:02:33.607Z,57.97
2019-03-24T14:05:11.932Z,56.30
2019-03-24T14:08:08.539Z,68.73
2019-03-24T14:11:15.406Z,60.37
2019-03-24T14:13:52.167Z,61.27
2019-03-24T14:16:46.593Z,57.33
2019-03-24T14:19:42.361Z,57.53
2019-03-24T14:22:13.871Z,61.10
2019-03-24T14:24:48.534Z,63.23
2019-03-24T14:27:23.888Z,55.23
2019-03-24T14:29:55.416Z,62.90
2019-03-24T14:32:28.796Z,62.63
2019-03-24T14:35:07.722Z,67.90
2019-03-24T14:37:40.401Z,67.87
2019-03-24T14:40:12.198Z,61.03
2019-03-24T14:42:43.673Z,64.63
2019-03-24T14:45:16.649Z,70.83
2019-03-24T14:47:51.744Z,64.57
2019-03-24T14:50:23.169Z,62.97
2019-03-24T14:53:00.661Z,62.90
2019-03-24T14:55:36.210Z,63.53
2019-03-24T14:58:09.471Z,62.47
2019-03-24T15:00:42.433Z,62.53
2019-03-24T15:03:14.161Z,65.53
2019-03-24T15:05:45.652Z,64.50
2019-03-24T15:08:17.653Z,55.67
2019-03-24T15:10:49.013Z,58.77
2019-03-24T15:13:21.085Z,55.77
2019-03-24T15:15:52.546Z,64.60
2019-03-24T15:18:24.007Z,62.23
2019-03-24T15:21:06.252Z,61.03
2019-03-24T15:23:38.428Z,63.80
2019-03-24T15:26:09.834Z,58.63
2019-03-24T15:28:42.057Z,54.53
2019-03-24T15:31:16.716Z,56.33
2019-03-24T15:33:48.050Z,56.97
2019-03-24T15:36:19.701Z,63.93
2019-03-24T15:38:54.244Z,56.57
2019-03-24T15:41:30.428Z,55.33
2019-03-24T15:44:09.624Z,54.40
2019-03-24T15:46:39.067Z,59.60
2019-03-24T15:49:10.928Z,54.90
2019-03-24T15:51:50.098Z,54.50
2019-03-24T15:54:23.317Z,55.90
2019-03-24T15:56:55.902Z,51.17
2019-03-24T15:59:27.300Z,49.43
2019-03-24T16:02:01.450Z,57.17
2019-03-24T16:04:33.628Z,59.30
2019-03-24T16:07:11.433Z,58.47
2019-03-24T16:09:51.641Z,52.70
2019-03-24T16:12:23.337Z,56.83
2019-03-24T16:14:57.475Z,66.27
2019-03-24T16:17:35.684Z,55.20
2019-03-24T16:20:13.231Z,68.37
2019-03-24T16:22:57.230Z,67.53
2019-03-24T16:26:09.508Z,64.10
2019-03-24T16:29:08.941Z,56.67
2019-03-24T16:31:45.817Z,93.77
2019-03-24T16:34:23.201Z,115.43
2019-03-24T16:36:55.129Z,147.27
2019-03-24T16:39:30.405Z,63.70
2019-03-24T16:42:02.469Z,252.13
2019-03-24T16:44:34.671Z,153.00
2019-03-24T16:47:09.383Z,252.40
2019-03-24T16:49:41.343Z,215.30
2019-03-24T16:52:28.494Z,186.13
2019-03-24T16:55:06.164Z,113.50
2019-03-24T16:57:46.884Z,241.53
2019-03-24T17:00:27.236Z,152.93
2019-03-24T17:03:18.047Z,89.90
2019-03-24T17:05:56.521Z,79.17
2019-03-24T17:08:33.476Z,520.60
2019-03-24T17:11:05.426Z,384.80
2019-03-24T17:13:41.137Z,144.97
2019-03-24T17:16:26.561Z,64.23
2019-03-24T17:18:58.000Z,65.77
2019-03-24T17:21:49.522Z,60.03
2019-03-24T17:24:19.923Z,57.07
2019-03-24T17:26:57.676Z,58.00
2019-03-24T17:29:47.007Z,66.33
2019-03-24T17:32:18.499Z,72.37
2019-03-24T17:34:50.951Z,162.03
2019-03-24T17:37:25.720Z,83.23
2019-03-24T17:40:03.493Z,96.13
2019-03-24T17:42:40.064Z,78.43
2019-03-24T17:45:14.588Z,156.37
2019-03-24T17:47:49.735Z,67.27
2019-03-24T17:50:23.887Z,80.03
2019-03-24T17:52:58.679Z,137.00
2019-03-24T17:55:36.105Z,97.93
2019-03-24T17:58:10.341Z,87.77
2019-03-24T18:00:50.632Z,75.67
2019-03-24T18:03:33.961Z,56.30
2019-03-24T18:06:06.201Z,51.93
2019-03-24T18:08:41.829Z,64.60
2019-03-24T18:11:24.911Z,52.40
2019-03-24T18:13:56.454Z,54.80
2019-03-24T18:16:32.954Z,50.70
2019-03-24T18:19:11.229Z,56.63
2019-03-24T18:21:42.589Z,56.70
2019-03-24T18:24:18.940Z,64.70
2019-03-24T18:26:54.379Z,56.77
2019-03-24T18:29:33.696Z,52.67
2019-03-24T18:32:09.679Z,54.63
2019-03-24T18:34:41.806Z,59.50
2019-03-24T18:37:13.435Z,51.90
2019-03-24T18:39:47.594Z,53.27
2019-03-24T18:42:24.055Z,56.47
2019-03-24T18:45:09.938Z,53.33
2019-03-24T18:47:52.245Z,56.63
2019-03-24T18:50:23.997Z,54.13
2019-03-24T18:52:57.639Z,56.93
2019-03-24T18:55:33.773Z,55.90
2019-03-24T18:58:08.883Z,53.70
2019-03-24T19:00:58.561Z,54.43
2019-03-24T19:03:31.709Z,65.90
2019-03-24T19:06:10.549Z,62.67
2019-03-24T19:08:42.446Z,63.23
2019-03-24T19:11:14.855Z,63.63
2019-03-24T19:13:52.581Z,64.60
2019-03-24T19:16:27.179Z,66.30
2019-03-24T19:19:04.429Z,64.60
2019-03-24T19:22:02.174Z,58.10
2019-03-24T19:24:41.337Z,58.97
2019-03-24T19:27:15.097Z,65.53
2019-03-24T19:29:47.237Z,62.33
2019-03-24T19:32:23.098Z,61.83
2019-03-24T19:34:55.044Z,65.87
2019-03-24T19:37:39.726Z,66.37
2019-03-24T19:40:31.645Z,65.43
2019-03-24T19:43:20.761Z,68.67
2019-03-24T19:45:58.245Z,61.47
2019-03-24T19:48:44.330Z,66.67
2019-03-24T19:51:39.113Z,60.87
2019-03-24T19:54:13.741Z,60.60
2019-03-24T19:56:54.366Z,61.30
2019-03-24T19:59:27.870Z,63.50
2019-03-24T20:02:03.624Z,69.63
2019-03-24T20:04:37.036Z,69.87
2019-03-24T20:07:11.946Z,65.47
2019-03-24T20:09:52.243Z,70.83
2019-03-24T20:12:31.682Z,69.13
2019-03-24T20:15:13.509Z,68.20
2019-03-24T20:17:52.677Z,72.47
2019-03-24T20:20:38.619Z,67.73
2019-03-24T20:23:09.559Z,70.00
2019-03-24T20:25:43.559Z,66.30
2019-03-24T20:28:18.042Z,71.70
2019-03-24T20:30:50.216Z,70.67
2019-03-24T20:33:24.302Z,65.33
2019-03-24T20:36:02.041Z,73.07
2019-03-24T20:38:33.613Z,71.47
2019-03-24T20:41:06.803Z,75.20
2019-03-24T20:43:40.507Z,74.40
2019-03-24T20:46:14.871Z,74.73
2019-03-24T20:48:53.405Z,77.03
2019-03-24T20:51:31.484Z,74.87
2019-03-24T20:54:05.851Z,75.63
2019-03-24T20:56:44.081Z,72.57
2019-03-24T20:59:15.733Z,70.93
2019-03-24T21:01:47.659Z,65.83
2019-03-24T21:04:23.484Z,72.33
2019-03-24T21:07:03.767Z,70.80
2019-03-24T21:09:36.276Z,71.30
2019-03-24T21:12:08.416Z,67.13
2019-03-24T21:14:41.350Z,70.63
2019-03-24T21:17:13.429Z,69.97
2019-03-24T21:19:45.189Z,63.47
2019-03-24T21:22:17.655Z,70.07
2019-03-24T21:24:58.103Z,72.30
2019-03-24T21:27:40.902Z,67.37
2019-03-24T21:30:17.536Z,62.10
2019-03-24T21:32:51.470Z,73.37
2019-03-24T21:35:37.380Z,65.47
2019-03-24T21:38:09.171Z,72.57
2019-03-24T21:40:43.376Z,72.20
2019-03-24T21:43:25.397Z,72.93
2019-03-24T21:46:11.049Z,67.77
2019-03-24T21:48:42.505Z,67.63
2019-03-24T21:51:19.779Z,58.70
2019-03-24T21:53:56.259Z,64.37
2019-03-24T21:56:27.614Z,66.53
2019-03-24T21:59:01.464Z,59.70
2019-03-24T22:01:39.433Z,69.23
2019-03-24T22:04:10.882Z,61.83
2019-03-24T22:06:42.862Z,60.73
2019-03-24T22:09:14.463Z,61.63
2019-03-24T22:11:48.605Z,59.30
2019-03-24T22:14:22.306Z,58.17
2019-03-24T22:16:55.295Z,63.07
2019-03-24T22:19:38.675Z,57.43
2019-03-24T22:22:09.583Z,62.07
2019-03-24T22:24:49.365Z,67.23
2019-03-24T22:27:22.727Z,60.07
2019-03-24T22:29:54.504Z,65.67
2019-03-24T22:32:31.161Z,67.07
2019-03-24T22:35:07.241Z,63.70
2019-03-24T22:37:40.036Z,61.90
2019-03-24T22:40:12.818Z,57.27
2019-03-24T22:42:51.886Z,66.43
2019-03-24T22:45:23.425Z,55.57
2019-03-24T22:47:56.048Z,64.17
2019-03-24T22:50:27.375Z,57.60
2019-03-24T22:52:58.748Z,64.60
2019-03-24T22:55:30.130Z,53.70
2019-03-24T22:58:01.500Z,54.50
2019-03-24T23:01:00.696Z,57.77
2019-03-24T23:03:36.700Z,58.67
2019-03-24T23:06:09.630Z,55.13
2019-03-24T23:08:41.122Z,52.77
2019-03-24T23:11:14.514Z,52.47
2019-03-24T23:13:46.144Z,50.60
2019-03-24T23:16:18.908Z,52.00
2019-03-24T23:18:50.203Z,55.53
2019-03-24T23:21:21.584Z,49.80
2019-03-24T23:23:55.790Z,60.83
2019-03-24T23:26:31.714Z,56.83
2019-03-24T23:29:08.213Z,55.00
2019-03-24T23:31:39.913Z,56.63
2019-03-24T23:34:11.254Z,51.13
2019-03-24T23:36:42.620Z,50.60
2019-03-24T23:39:18.444Z,52.07
2019-03-24T23:41:52.401Z,53.23
2019-03-24T23:44:23.854Z,52.37
2019-03-24T23:46:55.797Z,53.23
2019-03-24T23:49:27.407Z,46.83
2019-03-24T23:51:59.860Z,47.63
2019-03-24T23:54:31.310Z,49.60
2019-03-24T23:57:02.715Z,44.97
2019-03-24T23:59:34.310Z,51.10
